createdAt,value
2018-04-25T00:00:11.394Z,15.05
2018-04-25T00:01:16.853Z,15.08
2018-04-25T00:02:21.971Z,15.14
2018-04-25T00:03:27.748Z,15.16
2018-04-25T00:04:33.519Z,15.21
2018-04-25T00:05:40.049Z,15.21
2018-04-25T00:06:45.843Z,15.23
2018-04-25T00:07:50.941Z,15.26
2018-04-25T00:08:56.563Z,15.29
2018-04-25T00:10:02.330Z,15.30
2018-04-25T00:11:08.533Z,15.29
2018-04-25T00:12:14.035Z,15.27
2018-04-25T00:13:19.475Z,15.27
2018-04-25T00:14:24.601Z,15.23
2018-04-25T00:15:30.030Z,15.25
2018-04-25T00:16:35.156Z,15.28
2018-04-25T00:17:40.616Z,15.29
2018-04-25T00:18:46.417Z,15.27
2018-04-25T00:19:52.951Z,15.25
2018-04-25T00:20:58.731Z,15.30
2018-04-25T00:22:04.504Z,15.32
2018-04-25T00:23:10.303Z,15.33
2018-04-25T00:24:16.072Z,15.32
2018-04-25T00:25:21.382Z,15.29
2018-04-25T00:26:27.162Z,15.33
2018-04-25T00:27:32.928Z,15.32
2018-04-25T00:28:38.718Z,15.28
2018-04-25T00:29:44.487Z,15.29
2018-04-25T00:30:49.585Z,15.27
2018-04-25T00:31:55.359Z,15.28
2018-04-25T00:33:01.128Z,15.26
2018-04-25T00:34:07.213Z,15.25
2018-04-25T00:35:13.003Z,15.27
2018-04-25T00:36:18.771Z,15.27
2018-04-25T00:37:25.295Z,15.28
2018-04-25T00:38:31.064Z,15.28
2018-04-25T00:39:37.623Z,15.30
2018-04-25T00:40:43.402Z,15.33
2018-04-25T00:41:48.271Z,15.33
2018-04-25T00:42:53.400Z,15.32
2018-04-25T00:43:58.511Z,15.32
2018-04-25T00:45:03.645Z,15.36
2018-04-25T00:46:08.735Z,15.38
2018-04-25T00:47:13.845Z,15.39
2018-04-25T00:48:19.712Z,15.40
2018-04-25T00:49:24.834Z,15.41
2018-04-25T00:50:29.961Z,15.40
2018-04-25T00:51:35.076Z,15.42
2018-04-25T00:52:40.184Z,15.41
2018-04-25T00:53:46.375Z,15.39
2018-04-25T00:54:51.873Z,15.36
2018-04-25T00:55:57.771Z,15.35
2018-04-25T00:57:02.884Z,15.31
2018-04-25T00:58:08.001Z,15.29
2018-04-25T00:59:13.126Z,15.28
2018-04-25T01:00:18.227Z,15.24
2018-04-25T01:01:24.107Z,15.25
2018-04-25T01:02:29.543Z,15.25
2018-04-25T01:03:34.645Z,15.22
2018-04-25T01:04:39.770Z,15.21
2018-04-25T01:05:44.629Z,15.22
2018-04-25T01:06:49.748Z,15.20
2018-04-25T01:07:54.832Z,15.20
2018-04-25T01:09:00.685Z,15.19
2018-04-25T01:10:06.863Z,15.17
2018-04-25T01:11:11.727Z,15.17
2018-04-25T01:12:17.150Z,15.18
2018-04-25T01:13:22.223Z,15.16
2018-04-25T01:14:27.639Z,15.15
2018-04-25T01:15:33.253Z,15.14
2018-04-25T01:16:38.363Z,15.15
2018-04-25T01:17:43.475Z,15.14
2018-04-25T01:18:48.333Z,15.14
2018-04-25T01:19:53.447Z,15.15
2018-04-25T01:20:58.291Z,15.15
2018-04-25T01:22:03.383Z,15.17
2018-04-25T01:23:09.455Z,15.17
2018-04-25T01:24:14.675Z,15.18
2018-04-25T01:25:39.640Z,15.18
2018-04-25T01:26:44.480Z,15.18
2018-04-25T01:27:53.341Z,15.19
2018-04-25T01:29:01.007Z,15.19
2018-04-25T01:30:06.657Z,15.17
2018-04-25T01:32:50.777Z,15.13
2018-04-25T01:34:02.283Z,15.12
2018-04-25T01:35:08.134Z,15.11
2018-04-25T01:36:27.584Z,15.10
2018-04-25T01:37:50.862Z,15.06
2018-04-25T01:38:56.032Z,15.03
2018-04-25T01:40:16.717Z,15.00
2018-04-25T01:41:21.554Z,14.98
2018-04-25T01:44:25.092Z,14.93
2018-04-25T01:47:37.138Z,14.88
2018-04-25T01:50:38.095Z,14.82
2018-04-25T01:52:01.719Z,14.83
2018-04-25T01:53:24.387Z,14.85
2018-04-25T01:54:47.100Z,14.85
2018-04-25T01:56:09.757Z,14.85
2018-04-25T01:57:32.446Z,14.85
2018-04-25T01:58:55.122Z,14.88
2018-04-25T02:00:17.834Z,14.87
2018-04-25T02:01:21.907Z,14.86
2018-04-25T02:02:26.727Z,14.88
2018-04-25T02:03:50.199Z,14.89
2018-04-25T02:04:56.725Z,14.91
2018-04-25T02:06:01.588Z,14.95
2018-04-25T02:07:07.385Z,14.94
2018-04-25T02:08:13.135Z,14.96
2018-04-25T02:09:18.936Z,14.93
2018-04-25T02:10:24.755Z,14.94
2018-04-25T02:11:30.266Z,14.93
2018-04-25T02:12:36.803Z,14.92
2018-04-25T02:13:42.224Z,14.92
2018-04-25T02:14:47.743Z,14.90
2018-04-25T02:15:53.504Z,14.90
2018-04-25T02:16:59.248Z,14.87
2018-04-25T02:18:05.026Z,14.86
2018-04-25T02:19:11.541Z,14.83
2018-04-25T02:20:17.287Z,14.82
2018-04-25T02:21:23.035Z,14.80
2018-04-25T02:22:29.642Z,14.78
2018-04-25T02:23:36.174Z,14.78
2018-04-25T02:24:42.273Z,14.77
2018-04-25T02:25:48.040Z,14.76
2018-04-25T02:26:53.788Z,14.75
2018-04-25T02:27:59.543Z,14.76
2018-04-25T02:29:05.319Z,14.78
2018-04-25T02:30:11.096Z,14.78
2018-04-25T02:31:16.877Z,14.78
2018-04-25T02:32:22.737Z,14.78
2018-04-25T02:33:29.274Z,14.79
2018-04-25T02:34:35.039Z,14.78
2018-04-25T02:35:41.564Z,14.76
2018-04-25T02:36:47.342Z,14.74
2018-04-25T02:37:53.624Z,14.72
2018-04-25T02:38:59.389Z,14.71
2018-04-25T02:40:04.878Z,14.71
2018-04-25T02:41:11.437Z,14.69
2018-04-25T02:42:17.967Z,14.65
2018-04-25T02:43:23.716Z,14.65
2018-04-25T02:44:29.477Z,14.62
2018-04-25T02:45:36.011Z,14.59
2018-04-25T02:46:41.763Z,14.59
2018-04-25T02:47:47.522Z,14.58
2018-04-25T02:48:54.088Z,14.56
2018-04-25T02:49:59.840Z,14.55
2018-04-25T02:51:05.722Z,14.52
2018-04-25T02:52:11.479Z,14.48
2018-04-25T02:53:17.307Z,14.48
2018-04-25T02:54:23.063Z,14.48
2018-04-25T02:55:28.815Z,14.47
2018-04-25T02:56:34.619Z,14.46
2018-04-25T02:57:40.442Z,14.45
2018-04-25T02:58:45.987Z,14.44
2018-04-25T02:59:51.403Z,14.47
2018-04-25T03:00:57.150Z,14.46
2018-04-25T03:02:02.919Z,14.47
2018-04-25T03:03:08.664Z,14.48
2018-04-25T03:04:14.424Z,14.50
2018-04-25T03:05:20.171Z,14.50
2018-04-25T03:06:25.593Z,14.52
2018-04-25T03:07:31.369Z,14.54
2018-04-25T03:08:37.897Z,14.56
2018-04-25T03:09:43.652Z,14.56
2018-04-25T03:10:49.421Z,14.55
2018-04-25T03:11:55.179Z,14.57
2018-04-25T03:13:00.984Z,14.60
2018-04-25T03:14:07.515Z,14.62
2018-04-25T03:15:13.278Z,14.63
2018-04-25T03:16:18.817Z,14.62
2018-04-25T03:17:24.636Z,14.63
2018-04-25T03:18:30.407Z,14.64
2018-04-25T03:19:36.988Z,14.67
2018-04-25T03:20:43.503Z,14.68
2018-04-25T03:21:50.030Z,14.69
2018-04-25T03:22:55.796Z,14.71
2018-04-25T03:24:01.569Z,14.72
2018-04-25T03:25:07.320Z,14.70
2018-04-25T03:26:13.840Z,14.73
2018-04-25T03:27:19.593Z,14.74
2018-04-25T03:28:25.364Z,14.75
2018-04-25T03:29:31.899Z,14.78
2018-04-25T03:30:38.423Z,14.78
2018-04-25T03:31:44.172Z,14.79
2018-04-25T03:32:49.939Z,14.79
2018-04-25T03:33:55.716Z,14.79
2018-04-25T03:35:02.245Z,14.77
2018-04-25T03:36:08.018Z,14.75
2018-04-25T03:37:14.577Z,14.75
2018-04-25T03:38:21.092Z,14.75
2018-04-25T03:39:26.863Z,14.73
2018-04-25T03:40:33.403Z,14.74
2018-04-25T03:41:39.152Z,14.77
2018-04-25T03:42:46.408Z,14.78
2018-04-25T03:43:52.151Z,14.77
2018-04-25T03:44:57.939Z,14.77
2018-04-25T03:46:04.480Z,14.78
2018-04-25T03:47:11.002Z,14.81
2018-04-25T03:48:16.768Z,14.82
2018-04-25T03:49:22.514Z,14.82
2018-04-25T03:50:28.287Z,14.85
2018-04-25T03:51:34.077Z,14.86
2018-04-25T03:52:40.052Z,14.88
2018-04-25T03:53:46.580Z,14.88
2018-04-25T03:54:52.327Z,14.87
2018-04-25T03:55:58.097Z,14.90
2018-04-25T03:57:03.880Z,14.89
2018-04-25T03:58:09.651Z,14.91
2018-04-25T03:59:15.449Z,14.91
2018-04-25T04:00:21.370Z,14.93
2018-04-25T04:01:27.923Z,14.93
2018-04-25T04:02:33.699Z,14.93
2018-04-25T04:03:39.447Z,14.94
2018-04-25T04:04:45.206Z,14.94
2018-04-25T04:05:50.956Z,14.95
2018-04-25T04:06:56.478Z,14.94
2018-04-25T04:08:02.252Z,14.96
2018-04-25T04:09:08.008Z,14.97
2018-04-25T04:10:14.543Z,14.98
2018-04-25T04:11:20.054Z,14.98
2018-04-25T04:12:25.910Z,14.98
2018-04-25T04:13:31.690Z,14.96
2018-04-25T04:14:38.228Z,14.99
2018-04-25T04:15:44.031Z,14.99
2018-04-25T04:16:49.783Z,15.03
2018-04-25T04:17:55.539Z,15.05
2018-04-25T04:19:01.316Z,15.06
2018-04-25T04:20:07.851Z,15.06
2018-04-25T04:21:13.662Z,15.04
2018-04-25T04:22:19.439Z,15.03
2018-04-25T04:23:25.192Z,15.02
2018-04-25T04:24:32.383Z,15.06
2018-04-25T04:25:38.295Z,15.08
2018-04-25T04:26:44.079Z,15.09
2018-04-25T04:27:50.691Z,15.08
2018-04-25T04:28:56.450Z,15.12
2018-04-25T04:30:03.031Z,15.14
2018-04-25T04:31:09.547Z,15.14
2018-04-25T04:32:15.416Z,15.14
2018-04-25T04:33:21.167Z,15.16
2018-04-25T04:34:26.693Z,15.16
2018-04-25T04:35:32.466Z,15.18
2018-04-25T04:36:39.003Z,15.20
2018-04-25T04:37:44.751Z,15.18
2018-04-25T04:38:51.033Z,15.19
2018-04-25T04:39:56.798Z,15.21
2018-04-25T04:41:02.568Z,15.19
2018-04-25T04:42:09.880Z,15.21
2018-04-25T04:43:16.459Z,15.23
2018-04-25T04:44:22.387Z,15.23
2018-04-25T04:45:28.904Z,15.27
2018-04-25T04:46:34.679Z,15.29
2018-04-25T04:47:41.216Z,15.34
2018-04-25T04:48:47.090Z,15.36
2018-04-25T04:49:53.612Z,15.41
2018-04-25T04:50:59.822Z,15.43
2018-04-25T04:52:05.601Z,15.44
2018-04-25T04:53:11.360Z,15.48
2018-04-25T04:54:17.095Z,15.48
2018-04-25T04:55:22.864Z,15.50
2018-04-25T04:56:29.416Z,15.53
2018-04-25T04:57:35.979Z,15.54
2018-04-25T04:58:42.571Z,15.56
2018-04-25T04:59:48.371Z,15.57
2018-04-25T05:00:54.329Z,15.58
2018-04-25T05:02:00.849Z,15.62
2018-04-25T05:03:06.409Z,15.64
2018-04-25T05:04:12.170Z,15.66
2018-04-25T05:05:18.725Z,15.67
2018-04-25T05:06:25.309Z,15.68
2018-04-25T05:07:31.055Z,15.71
2018-04-25T05:08:36.996Z,15.71
2018-04-25T05:09:42.871Z,15.73
2018-04-25T05:10:48.627Z,15.73
2018-04-25T05:11:54.379Z,15.76
2018-04-25T05:13:00.213Z,15.78
2018-04-25T05:14:05.983Z,15.81
2018-04-25T05:15:11.742Z,15.83
2018-04-25T05:16:18.258Z,15.87
2018-04-25T05:17:24.015Z,15.87
2018-04-25T05:18:29.773Z,15.88
2018-04-25T05:19:36.310Z,15.88
2018-04-25T05:20:42.139Z,15.90
2018-04-25T05:21:47.899Z,15.90
2018-04-25T05:22:53.647Z,15.91
2018-04-25T05:23:59.405Z,15.89
2018-04-25T05:25:05.943Z,15.93
2018-04-25T05:26:11.735Z,15.92
2018-04-25T05:27:17.494Z,15.93
2018-04-25T05:28:23.243Z,15.98
2018-04-25T05:29:29.008Z,16.02
2018-04-25T05:30:34.783Z,16.03
2018-04-25T05:31:41.291Z,16.05
2018-04-25T05:32:47.073Z,16.08
2018-04-25T05:33:53.616Z,16.09
2018-04-25T05:34:59.379Z,16.09
2018-04-25T05:36:05.146Z,16.10
2018-04-25T05:37:10.924Z,16.11
2018-04-25T05:38:16.682Z,16.14
2018-04-25T05:39:23.195Z,16.16
2018-04-25T05:40:28.944Z,16.21
2018-04-25T05:41:34.739Z,16.22
2018-04-25T05:42:41.260Z,16.25
2018-04-25T05:43:47.010Z,16.30
2018-04-25T05:44:52.769Z,16.32
2018-04-25T05:45:58.679Z,16.34
2018-04-25T05:47:04.658Z,16.38
2018-04-25T05:48:10.187Z,16.38
2018-04-25T05:49:15.919Z,16.43
2018-04-25T05:50:21.675Z,16.52
2018-04-25T05:51:27.250Z,16.63
2018-04-25T05:52:33.464Z,16.72
2018-04-25T05:53:39.513Z,16.78
2018-04-25T05:54:45.289Z,16.82
2018-04-25T05:55:51.114Z,16.84
2018-04-25T05:56:57.768Z,16.90
2018-04-25T05:58:03.639Z,16.95
2018-04-25T05:59:09.664Z,17.00
2018-04-25T06:00:16.353Z,17.04
2018-04-25T06:01:22.224Z,17.07
2018-04-25T06:02:28.081Z,17.10
2018-04-25T06:03:33.922Z,17.14
2018-04-25T06:04:39.837Z,17.15
2018-04-25T06:05:45.877Z,17.18
2018-04-25T06:06:51.682Z,17.23
2018-04-25T06:07:57.439Z,17.25
2018-04-25T06:09:03.550Z,17.28
2018-04-25T06:10:09.579Z,17.31
2018-04-25T06:11:15.365Z,17.32
2018-04-25T06:12:21.202Z,17.33
2018-04-25T06:13:27.660Z,17.36
2018-04-25T06:14:33.433Z,17.38
2018-04-25T06:15:39.949Z,17.39
2018-04-25T06:16:45.703Z,17.42
2018-04-25T06:17:51.464Z,17.42
2018-04-25T06:18:57.223Z,17.42
2018-04-25T06:20:03.750Z,17.48
2018-04-25T06:21:09.495Z,17.48
2018-04-25T06:22:15.270Z,17.51
2018-04-25T06:23:21.031Z,17.57
2018-04-25T06:24:26.775Z,17.61
2018-04-25T06:25:32.608Z,17.65
2018-04-25T06:26:38.415Z,17.68
2018-04-25T06:27:44.334Z,17.71
2018-04-25T06:28:50.096Z,17.71
2018-04-25T06:29:55.838Z,17.72
2018-04-25T06:31:01.637Z,17.71
2018-04-25T06:32:06.719Z,17.74
2018-04-25T06:33:13.246Z,17.78
2018-04-25T06:34:18.996Z,17.84
2018-04-25T06:35:25.143Z,17.91
2018-04-25T06:36:30.849Z,17.98
2018-04-25T06:37:36.616Z,18.03
2018-04-25T06:38:42.364Z,18.05
2018-04-25T06:39:49.626Z,18.11
2018-04-25T06:40:55.602Z,18.13
2018-04-25T06:42:02.148Z,18.18
2018-04-25T06:43:07.908Z,18.19
2018-04-25T06:44:13.735Z,18.20
2018-04-25T06:45:19.631Z,18.22
2018-04-25T06:46:25.385Z,18.17
2018-04-25T06:47:31.161Z,18.14
2018-04-25T06:48:36.915Z,18.09
2018-04-25T06:49:42.673Z,18.10
2018-04-25T06:50:49.184Z,18.06
2018-04-25T06:51:54.990Z,18.08
2018-04-25T06:53:01.515Z,18.03
2018-04-25T06:54:07.262Z,17.99
2018-04-25T06:55:13.006Z,18.00
2018-04-25T06:56:19.528Z,18.02
2018-04-25T06:57:25.284Z,18.06
2018-04-25T06:58:31.070Z,18.15
2018-04-25T06:59:36.815Z,18.23
2018-04-25T07:00:42.574Z,18.26
2018-04-25T07:01:48.325Z,18.33
2018-04-25T07:02:54.085Z,18.40
2018-04-25T07:03:59.869Z,18.46
2018-04-25T07:05:06.385Z,18.55
2018-04-25T07:06:12.126Z,18.57
2018-04-25T07:07:17.891Z,18.62
2018-04-25T07:08:23.639Z,18.67
2018-04-25T07:09:29.415Z,18.76
2018-04-25T07:10:35.191Z,18.91
2018-04-25T07:11:40.997Z,19.07
2018-04-25T07:12:46.775Z,19.21
2018-04-25T07:13:52.327Z,19.37
2018-04-25T07:14:58.090Z,19.50
2018-04-25T07:16:04.672Z,19.69
2018-04-25T07:17:11.187Z,19.93
2018-04-25T07:18:16.948Z,20.10
2018-04-25T07:19:22.695Z,20.26
2018-04-25T07:20:28.464Z,20.34
2018-04-25T07:21:34.211Z,20.45
2018-04-25T07:22:39.957Z,20.56
2018-04-25T07:23:45.910Z,20.71
2018-04-25T07:24:52.373Z,20.89
2018-04-25T07:25:58.151Z,21.20
2018-04-25T07:27:03.901Z,21.71
2018-04-25T07:28:09.666Z,22.33
2018-04-25T07:29:16.186Z,22.94
2018-04-25T07:30:22.230Z,23.43
2018-04-25T07:31:28.011Z,23.96
2018-04-25T07:32:34.533Z,24.31
2018-04-25T07:33:40.092Z,24.54
2018-04-25T07:34:46.599Z,24.61
2018-04-25T07:35:52.353Z,24.72
2018-04-25T07:36:58.143Z,24.91
2018-04-25T07:38:04.668Z,25.28
2018-04-25T07:39:10.423Z,25.65
2018-04-25T07:40:16.173Z,26.04
2018-04-25T07:41:21.915Z,26.38
2018-04-25T07:42:27.693Z,26.67
2018-04-25T07:43:33.439Z,26.99
2018-04-25T07:44:39.176Z,27.24
2018-04-25T07:45:44.676Z,27.53
2018-04-25T07:46:50.642Z,27.70
2018-04-25T07:47:57.517Z,28.00
2018-04-25T07:49:03.258Z,28.32
2018-04-25T07:50:09.007Z,28.66
2018-04-25T07:51:15.524Z,28.78
2018-04-25T07:52:21.281Z,28.88
2018-04-25T07:53:27.279Z,29.00
2018-04-25T07:54:33.020Z,29.17
2018-04-25T07:55:38.771Z,29.35
2018-04-25T07:56:44.531Z,29.29
2018-04-25T07:57:51.787Z,28.93
2018-04-25T07:58:57.563Z,28.62
2018-04-25T08:00:03.383Z,28.21
2018-04-25T08:01:09.131Z,27.79
2018-04-25T08:02:14.883Z,27.62
2018-04-25T08:03:20.631Z,27.17
2018-04-25T08:04:27.928Z,26.94
2018-04-25T08:05:34.439Z,26.59
2018-04-25T08:06:40.199Z,26.26
2018-04-25T08:07:45.943Z,26.05
2018-04-25T08:08:52.225Z,25.81
2018-04-25T08:09:58.777Z,25.65
2018-04-25T08:11:05.309Z,25.45
2018-04-25T08:12:27.881Z,25.29
2018-04-25T08:15:32.630Z,24.67
2018-04-25T08:16:55.293Z,24.45
2018-04-25T08:18:17.891Z,24.31
2018-04-25T08:19:40.660Z,24.09
2018-04-25T08:22:43.459Z,23.76
2018-04-25T08:23:49.273Z,23.61
2018-04-25T08:24:55.942Z,23.49
2018-04-25T08:26:01.687Z,23.48
2018-04-25T08:27:07.481Z,23.45
2018-04-25T08:28:14.007Z,23.49
2018-04-25T08:29:19.762Z,23.86
2018-04-25T08:30:25.512Z,24.41
2018-04-25T08:31:31.288Z,24.98
2018-04-25T08:32:37.845Z,25.64
2018-04-25T08:33:43.599Z,26.22
2018-04-25T08:34:49.429Z,26.58
2018-04-25T08:35:55.955Z,26.77
2018-04-25T08:37:02.991Z,26.91
2018-04-25T08:38:08.764Z,27.01
2018-04-25T08:39:14.554Z,26.83
2018-04-25T08:40:21.032Z,26.71
2018-04-25T08:41:26.792Z,26.69
2018-04-25T08:42:32.535Z,26.75
2018-04-25T08:43:38.334Z,26.99
2018-04-25T08:44:44.277Z,27.06
2018-04-25T08:45:50.141Z,27.39
2018-04-25T08:46:55.891Z,27.70
2018-04-25T08:48:01.643Z,28.01
2018-04-25T08:49:07.419Z,28.33
2018-04-25T08:50:13.186Z,28.64
2018-04-25T08:51:19.695Z,28.88
2018-04-25T08:52:25.451Z,29.01
2018-04-25T08:53:30.866Z,29.01
2018-04-25T08:54:36.668Z,28.79
2018-04-25T08:55:42.412Z,28.55
2018-04-25T08:56:48.198Z,28.24
2018-04-25T08:57:53.968Z,28.11
2018-04-25T08:59:00.482Z,28.11
2018-04-25T09:00:05.929Z,28.11
2018-04-25T09:01:11.678Z,28.29
2018-04-25T09:02:17.195Z,28.40
2018-04-25T09:03:22.952Z,28.46
2018-04-25T09:04:28.821Z,28.19
2018-04-25T09:05:34.599Z,28.20
2018-04-25T09:06:40.353Z,28.20
2018-04-25T09:07:46.114Z,28.20
2018-04-25T09:08:51.911Z,28.40
2018-04-25T09:09:58.428Z,28.47
2018-04-25T09:11:04.216Z,28.35
2018-04-25T09:12:09.961Z,28.10
2018-04-25T09:13:16.025Z,28.08
2018-04-25T09:14:22.144Z,28.47
2018-04-25T09:15:28.446Z,28.76
2018-04-25T09:16:34.562Z,29.07
2018-04-25T09:17:41.078Z,29.38
2018-04-25T09:18:47.369Z,29.62
2018-04-25T09:19:53.904Z,29.99
2018-04-25T09:20:59.655Z,30.07
2018-04-25T09:22:06.445Z,30.23
2018-04-25T09:23:12.423Z,30.49
2018-04-25T09:24:18.189Z,30.62
2018-04-25T09:25:25.443Z,30.88
2018-04-25T09:26:31.191Z,30.93
2018-04-25T09:27:36.772Z,31.10
2018-04-25T09:28:43.275Z,31.24
2018-04-25T09:29:48.709Z,31.41
2018-04-25T09:30:54.457Z,31.67
2018-04-25T09:32:00.230Z,31.97
2018-04-25T09:33:06.775Z,32.28
2018-04-25T09:34:12.528Z,32.40
2018-04-25T09:35:18.279Z,32.63
2018-04-25T09:36:24.022Z,32.65
2018-04-25T09:37:29.795Z,32.74
2018-04-25T09:38:35.568Z,32.93
2018-04-25T09:39:41.422Z,32.87
2018-04-25T09:40:47.182Z,32.69
2018-04-25T09:41:52.932Z,32.46
2018-04-25T09:42:59.463Z,32.26
2018-04-25T09:44:05.270Z,32.16
2018-04-25T09:45:11.037Z,31.74
2018-04-25T09:46:16.787Z,31.52
2018-04-25T09:47:22.560Z,31.46
2018-04-25T09:48:28.327Z,31.53
2018-04-25T09:49:34.859Z,31.41
2018-04-25T09:50:40.385Z,31.09
2018-04-25T09:51:46.176Z,30.81
2018-04-25T09:52:52.526Z,30.75
2018-04-25T09:53:58.278Z,30.73
2018-04-25T09:55:04.050Z,30.71
2018-04-25T09:56:09.839Z,30.89
2018-04-25T09:57:15.604Z,31.11
2018-04-25T09:58:21.417Z,31.34
2018-04-25T09:59:27.971Z,31.46
2018-04-25T10:00:39.801Z,31.24
2018-04-25T10:01:45.354Z,31.06
2018-04-25T10:02:56.877Z,30.83
2018-04-25T10:04:03.438Z,30.39
2018-04-25T10:05:10.143Z,29.91
2018-04-25T10:06:15.928Z,29.72
2018-04-25T10:07:21.789Z,29.70
2018-04-25T10:08:28.365Z,29.59
2018-04-25T10:09:34.564Z,29.32
2018-04-25T10:10:40.575Z,29.44
2018-04-25T10:11:46.751Z,29.40
2018-04-25T10:12:52.628Z,29.24
2018-04-25T10:13:59.318Z,29.27
2018-04-25T10:15:04.757Z,29.41
2018-04-25T10:16:10.544Z,29.33
2018-04-25T10:17:16.439Z,29.30
2018-04-25T10:18:22.345Z,29.03
2018-04-25T10:19:28.135Z,28.75
2018-04-25T10:20:33.924Z,28.27
2018-04-25T10:21:39.684Z,27.97
2018-04-25T10:22:46.251Z,27.71
2018-04-25T10:23:53.110Z,27.43
2018-04-25T10:24:58.935Z,27.11
2018-04-25T10:26:05.654Z,27.19
2018-04-25T10:27:11.483Z,27.21
2018-04-25T10:28:17.622Z,27.18
2018-04-25T10:29:24.540Z,27.23
2018-04-25T10:30:30.551Z,27.07
2018-04-25T10:31:38.273Z,26.99
2018-04-25T10:32:44.448Z,26.78
2018-04-25T10:33:51.760Z,26.58
2018-04-25T10:34:57.529Z,26.35
2018-04-25T10:36:03.272Z,26.18
2018-04-25T10:37:09.367Z,25.99
2018-04-25T10:38:15.939Z,25.69
2018-04-25T10:39:21.755Z,25.45
2018-04-25T10:40:27.562Z,25.37
2018-04-25T10:41:33.658Z,25.18
2018-04-25T10:42:40.237Z,25.18
2018-04-25T10:43:46.620Z,25.21
2018-04-25T10:44:52.577Z,25.21
2018-04-25T10:45:58.040Z,25.14
2018-04-25T10:47:03.830Z,25.09
2018-04-25T10:48:09.608Z,25.01
2018-04-25T10:49:15.377Z,24.93
2018-04-25T10:50:21.211Z,24.80
2018-04-25T10:51:27.007Z,24.52
2018-04-25T10:52:32.803Z,24.48
2018-04-25T10:53:38.626Z,24.21
2018-04-25T10:54:44.438Z,24.06
2018-04-25T10:55:50.272Z,24.06
2018-04-25T10:56:56.048Z,24.17
2018-04-25T10:58:01.795Z,24.27
2018-04-25T10:59:07.634Z,24.28
2018-04-25T11:00:13.387Z,24.19
2018-04-25T11:01:18.956Z,24.08
2018-04-25T11:02:25.321Z,23.97
2018-04-25T11:03:31.214Z,24.01
2018-04-25T11:04:36.823Z,24.04
2018-04-25T11:05:43.542Z,23.97
2018-04-25T11:06:50.605Z,23.82
2018-04-25T11:07:57.185Z,23.78
2018-04-25T11:09:02.714Z,23.67
2018-04-25T11:10:09.293Z,23.47
2018-04-25T11:11:15.816Z,23.39
2018-04-25T11:12:21.668Z,23.42
2018-04-25T11:13:28.936Z,23.37
2018-04-25T11:14:35.675Z,23.40
2018-04-25T11:15:41.439Z,23.37
2018-04-25T11:16:48.014Z,23.28
2018-04-25T11:17:53.796Z,23.31
2018-04-25T11:18:59.559Z,23.30
2018-04-25T11:20:05.310Z,23.43
2018-04-25T11:21:11.061Z,23.49
2018-04-25T11:22:16.815Z,23.55
2018-04-25T11:23:22.668Z,23.62
2018-04-25T11:24:28.426Z,23.59
2018-04-25T11:25:34.944Z,23.57
2018-04-25T11:26:40.491Z,23.64
2018-04-25T11:27:46.251Z,23.70
2018-04-25T11:28:52.035Z,23.79
2018-04-25T11:29:57.792Z,23.96
2018-04-25T11:31:03.550Z,24.09
2018-04-25T11:32:09.343Z,24.14
2018-04-25T11:33:15.947Z,24.20
2018-04-25T11:34:21.936Z,24.17
2018-04-25T11:35:28.699Z,24.15
2018-04-25T11:36:34.531Z,24.18
2018-04-25T11:37:41.100Z,24.08
2018-04-25T11:38:47.799Z,23.81
2018-04-25T11:39:53.593Z,23.57
2018-04-25T11:40:59.560Z,23.51
2018-04-25T11:42:05.585Z,23.37
2018-04-25T11:43:11.617Z,23.34
2018-04-25T11:44:17.726Z,23.37
2018-04-25T11:45:23.537Z,23.46
2018-04-25T11:46:30.150Z,23.42
2018-04-25T11:47:35.972Z,23.28
2018-04-25T11:48:41.523Z,23.31
2018-04-25T11:49:47.067Z,23.27
2018-04-25T11:50:52.855Z,23.26
2018-04-25T11:51:58.660Z,23.18
2018-04-25T11:53:04.475Z,23.20
2018-04-25T11:54:10.627Z,23.23
2018-04-25T11:55:16.723Z,23.19
2018-04-25T11:56:22.525Z,23.14
2018-04-25T11:57:28.267Z,23.09
2018-04-25T11:58:34.030Z,23.17
2018-04-25T11:59:39.844Z,23.16
2018-04-25T12:00:46.835Z,23.16
2018-04-25T12:01:52.763Z,23.21
2018-04-25T12:02:58.522Z,23.25
2018-04-25T12:04:04.424Z,23.34
2018-04-25T12:05:10.167Z,23.42
2018-04-25T12:06:16.699Z,23.34
2018-04-25T12:07:22.496Z,23.35
2018-04-25T12:08:28.313Z,23.37
2018-04-25T12:09:34.093Z,23.24
2018-04-25T12:10:40.584Z,23.17
2018-04-25T12:11:46.335Z,23.06
2018-04-25T12:12:53.884Z,23.04
2018-04-25T12:13:59.801Z,22.92
2018-04-25T12:15:04.891Z,22.87
2018-04-25T12:16:10.769Z,22.68
2018-04-25T12:17:17.536Z,22.65
2018-04-25T12:18:23.351Z,22.65
2018-04-25T12:19:29.045Z,22.55
2018-04-25T12:20:34.934Z,22.31
2018-04-25T12:21:42.215Z,22.17
2018-04-25T12:22:48.175Z,22.04
2018-04-25T12:23:54.731Z,21.76
2018-04-25T12:25:00.586Z,21.54
2018-04-25T12:26:07.164Z,21.32
2018-04-25T12:27:12.937Z,21.08
2018-04-25T12:28:18.696Z,20.86
2018-04-25T12:29:24.475Z,20.67
2018-04-25T12:30:31.175Z,20.37
2018-04-25T12:31:36.935Z,20.30
2018-04-25T12:32:42.699Z,20.24
2018-04-25T12:33:49.047Z,20.16
2018-04-25T12:34:54.846Z,20.25
2018-04-25T12:36:00.646Z,20.32
2018-04-25T12:37:06.965Z,20.60
2018-04-25T12:38:12.729Z,20.69
2018-04-25T12:39:18.503Z,20.70
2018-04-25T12:40:24.333Z,20.62
2018-04-25T12:41:31.859Z,20.61
2018-04-25T12:42:37.759Z,20.53
2018-04-25T12:43:44.295Z,20.47
2018-04-25T12:44:50.843Z,20.39
2018-04-25T12:45:56.623Z,20.31
2018-04-25T12:47:03.144Z,20.26
2018-04-25T12:48:08.893Z,20.21
2018-04-25T12:49:14.663Z,20.25
2018-04-25T12:50:21.191Z,20.21
2018-04-25T12:51:26.981Z,20.24
2018-04-25T12:52:32.736Z,20.25
2018-04-25T12:53:38.494Z,20.40
2018-04-25T12:54:44.266Z,20.52
2018-04-25T12:55:50.798Z,20.59
2018-04-25T12:56:57.478Z,20.61
2018-04-25T12:58:03.233Z,20.63
2018-04-25T12:59:08.997Z,20.60
2018-04-25T13:00:15.350Z,20.64
2018-04-25T13:01:21.871Z,20.74
2018-04-25T13:02:27.661Z,20.77
2018-04-25T13:03:34.205Z,20.81
2018-04-25T13:04:41.504Z,20.92
2018-04-25T13:05:47.403Z,20.98
2018-04-25T13:06:53.396Z,21.18
2018-04-25T13:07:59.970Z,21.28
2018-04-25T13:09:04.889Z,21.32
2018-04-25T13:10:10.806Z,21.39
2018-04-25T13:11:17.352Z,21.44
2018-04-25T13:12:23.126Z,21.40
2018-04-25T13:13:29.667Z,21.38
2018-04-25T13:14:36.212Z,21.38
2018-04-25T13:15:41.999Z,21.44
2018-04-25T13:16:48.519Z,21.44
2018-04-25T13:17:54.367Z,21.51
2018-04-25T13:19:00.151Z,21.51
2018-04-25T13:20:06.816Z,21.45
2018-04-25T13:21:12.640Z,21.52
2018-04-25T13:22:19.170Z,21.56
2018-04-25T13:23:25.068Z,21.64
2018-04-25T13:24:31.786Z,21.74
2018-04-25T13:25:37.557Z,21.93
2018-04-25T13:26:44.534Z,21.99
2018-04-25T13:27:50.375Z,22.11
2018-04-25T13:28:56.000Z,22.20
2018-04-25T13:30:01.943Z,22.25
2018-04-25T13:31:08.480Z,22.31
2018-04-25T13:32:15.484Z,22.36
2018-04-25T13:33:21.263Z,22.43
2018-04-25T13:34:27.009Z,22.44
2018-04-25T13:35:32.778Z,22.51
2018-04-25T13:36:40.646Z,22.54
2018-04-25T13:37:46.463Z,22.52
2018-04-25T13:38:52.587Z,22.45
2018-04-25T13:39:59.107Z,22.30
2018-04-25T13:41:04.898Z,22.12
2018-04-25T13:42:10.717Z,22.02
2018-04-25T13:43:16.803Z,21.96
2018-04-25T13:44:22.712Z,21.68
2018-04-25T13:45:30.018Z,21.56
2018-04-25T13:46:35.401Z,21.43
2018-04-25T13:47:41.162Z,21.35
2018-04-25T13:48:47.148Z,21.32
2018-04-25T13:49:52.907Z,21.32
2018-04-25T13:50:58.508Z,21.40
2018-04-25T13:52:05.054Z,21.46
2018-04-25T13:53:10.608Z,21.59
2018-04-25T13:54:17.140Z,21.66
2018-04-25T13:55:22.898Z,21.73
2018-04-25T13:56:29.451Z,21.85
2018-04-25T13:57:36.744Z,21.98
2018-04-25T13:58:43.270Z,22.03
2018-04-25T13:59:49.033Z,22.21
2018-04-25T14:00:54.856Z,22.26
2018-04-25T14:02:01.016Z,22.32
2018-04-25T14:03:07.567Z,22.46
2018-04-25T14:04:13.327Z,22.60
2018-04-25T14:05:19.875Z,22.64
2018-04-25T14:06:25.965Z,22.65
2018-04-25T14:07:31.760Z,22.68
2018-04-25T14:08:37.713Z,22.74
2018-04-25T14:09:43.488Z,22.80
2018-04-25T14:10:49.090Z,22.90
2018-04-25T14:11:55.433Z,22.91
2018-04-25T14:13:01.368Z,22.89
2018-04-25T14:14:07.486Z,22.83
2018-04-25T14:15:13.520Z,22.74
2018-04-25T14:16:19.760Z,22.55
2018-04-25T14:17:26.435Z,22.45
2018-04-25T14:18:32.439Z,22.29
2018-04-25T14:19:38.246Z,22.20
2018-04-25T14:20:44.043Z,22.16
2018-04-25T14:21:49.824Z,22.15
2018-04-25T14:22:55.627Z,22.12
2018-04-25T14:24:02.147Z,22.16
2018-04-25T14:25:07.929Z,22.20